sensor_id;sensor_type;location;lat;lon;timestamp;P1;durP1;ratioP1;P2;durP2;ratioP2
40971;SDS011;26701;47.408;19.174;2023-04-15T00:00:10;14.35;;;6.88;;
40971;SDS011;26701;47.408;19.174;2023-04-15T00:02:39;8.95;;;5.25;;
40971;SDS011;26701;47.408;19.174;2023-04-15T00:05:05;15.73;;;6.47;;
40971;SDS011;26701;47.408;19.174;2023-04-15T00:07:31;11.90;;;7.15;;
40971;SDS011;26701;47.408;19.174;2023-04-15T00:09:57;15.13;;;7.57;;
40971;SDS011;26701;47.408;19.174;2023-04-15T00:12:24;13.60;;;6.78;;
40971;SDS011;26701;47.408;19.174;2023-04-15T00:14:50;12.30;;;6.70;;
40971;SDS011;26701;47.408;19.174;2023-04-15T00:17:17;12.77;;;7.07;;
40971;SDS011;26701;47.408;19.174;2023-04-15T00:19:43;12.23;;;6.32;;
40971;SDS011;26701;47.408;19.174;2023-04-15T00:22:10;10.50;;;5.70;;
40971;SDS011;26701;47.408;19.174;2023-04-15T00:24:36;12.35;;;5.95;;
40971;SDS011;26701;47.408;19.174;2023-04-15T00:27:02;12.02;;;6.57;;
40971;SDS011;26701;47.408;19.174;2023-04-15T00:29:30;12.48;;;6.47;;
40971;SDS011;26701;47.408;19.174;2023-04-15T00:31:56;10.27;;;6.63;;
40971;SDS011;26701;47.408;19.174;2023-04-15T00:34:22;11.05;;;7.00;;
40971;SDS011;26701;47.408;19.174;2023-04-15T00:36:49;14.20;;;5.97;;
40971;SDS011;26701;47.408;19.174;2023-04-15T00:39:15;9.63;;;5.75;;
40971;SDS011;26701;47.408;19.174;2023-04-15T00:41:42;13.32;;;6.07;;
40971;SDS011;26701;47.408;19.174;2023-04-15T00:44:08;10.65;;;6.55;;
40971;SDS011;26701;47.408;19.174;2023-04-15T00:46:35;12.18;;;6.57;;
40971;SDS011;26701;47.408;19.174;2023-04-15T00:49:04;12.02;;;6.72;;
40971;SDS011;26701;47.408;19.174;2023-04-15T00:51:32;8.48;;;5.40;;
40971;SDS011;26701;47.408;19.174;2023-04-15T00:54:00;12.10;;;6.55;;
40971;SDS011;26701;47.408;19.174;2023-04-15T00:56:28;13.15;;;6.07;;
40971;SDS011;26701;47.408;19.174;2023-04-15T00:58:54;9.73;;;5.25;;
40971;SDS011;26701;47.408;19.174;2023-04-15T01:01:20;9.30;;;4.85;;
40971;SDS011;26701;47.408;19.174;2023-04-15T01:03:49;11.75;;;6.43;;
40971;SDS011;26701;47.408;19.174;2023-04-15T01:06:15;9.68;;;4.85;;
40971;SDS011;26701;47.408;19.174;2023-04-15T01:08:43;8.27;;;5.50;;
40971;SDS011;26701;47.408;19.174;2023-04-15T01:11:12;8.45;;;5.00;;
40971;SDS011;26701;47.408;19.174;2023-04-15T01:13:39;10.85;;;5.28;;
40971;SDS011;26701;47.408;19.174;2023-04-15T01:16:07;8.75;;;4.95;;
40971;SDS011;26701;47.408;19.174;2023-04-15T01:18:33;9.02;;;4.75;;
40971;SDS011;26701;47.408;19.174;2023-04-15T01:21:01;8.93;;;5.07;;
40971;SDS011;26701;47.408;19.174;2023-04-15T01:23:29;9.25;;;5.25;;
40971;SDS011;26701;47.408;19.174;2023-04-15T01:25:56;9.73;;;5.32;;
40971;SDS011;26701;47.408;19.174;2023-04-15T01:28:23;8.73;;;5.13;;
40971;SDS011;26701;47.408;19.174;2023-04-15T01:30:50;8.85;;;5.38;;
40971;SDS011;26701;47.408;19.174;2023-04-15T01:33:16;10.50;;;5.80;;
40971;SDS011;26701;47.408;19.174;2023-04-15T01:35:44;10.38;;;5.30;;
40971;SDS011;26701;47.408;19.174;2023-04-15T01:38:11;11.48;;;5.15;;
40971;SDS011;26701;47.408;19.174;2023-04-15T01:40:37;10.93;;;5.05;;
40971;SDS011;26701;47.408;19.174;2023-04-15T01:43:04;11.02;;;5.85;;
40971;SDS011;26701;47.408;19.174;2023-04-15T01:45:31;8.82;;;5.13;;
40971;SDS011;26701;47.408;19.174;2023-04-15T01:47:57;8.25;;;5.15;;
40971;SDS011;26701;47.408;19.174;2023-04-15T01:50:23;10.52;;;5.43;;
40971;SDS011;26701;47.408;19.174;2023-04-15T01:52:51;12.68;;;5.50;;
40971;SDS011;26701;47.408;19.174;2023-04-15T01:55:17;7.80;;;4.55;;
40971;SDS011;26701;47.408;19.174;2023-04-15T01:57:44;8.88;;;5.28;;
40971;SDS011;26701;47.408;19.174;2023-04-15T02:00:10;11.40;;;5.93;;
40971;SDS011;26701;47.408;19.174;2023-04-15T02:02:40;9.70;;;4.88;;
40971;SDS011;26701;47.408;19.174;2023-04-15T02:05:07;11.40;;;5.88;;
40971;SDS011;26701;47.408;19.174;2023-04-15T02:07:35;8.80;;;5.22;;
40971;SDS011;26701;47.408;19.174;2023-04-15T02:10:02;12.52;;;6.38;;
40971;SDS011;26701;47.408;19.174;2023-04-15T02:12:28;9.70;;;5.20;;
40971;SDS011;26701;47.408;19.174;2023-04-15T02:14:54;10.40;;;5.03;;
40971;SDS011;26701;47.408;19.174;2023-04-15T02:17:21;10.18;;;5.10;;
40971;SDS011;26701;47.408;19.174;2023-04-15T02:19:47;10.55;;;5.43;;
40971;SDS011;26701;47.408;19.174;2023-04-15T02:22:13;11.27;;;5.93;;
40971;SDS011;26701;47.408;19.174;2023-04-15T02:24:44;14.32;;;7.85;;
40971;SDS011;26701;47.408;19.174;2023-04-15T02:27:14;15.95;;;7.47;;
40971;SDS011;26701;47.408;19.174;2023-04-15T02:29:41;10.77;;;5.95;;
40971;SDS011;26701;47.408;19.174;2023-04-15T02:32:08;10.25;;;5.85;;
40971;SDS011;26701;47.408;19.174;2023-04-15T02:34:35;13.23;;;6.65;;
40971;SDS011;26701;47.408;19.174;2023-04-15T02:37:06;11.80;;;6.25;;
40971;SDS011;26701;47.408;19.174;2023-04-15T02:39:36;12.95;;;6.72;;
40971;SDS011;26701;47.408;19.174;2023-04-15T02:42:02;11.93;;;6.57;;
40971;SDS011;26701;47.408;19.174;2023-04-15T02:44:29;10.82;;;5.50;;
40971;SDS011;26701;47.408;19.174;2023-04-15T02:46:59;10.75;;;5.60;;
40971;SDS011;26701;47.408;19.174;2023-04-15T02:49:25;11.52;;;5.55;;
40971;SDS011;26701;47.408;19.174;2023-04-15T02:51:54;12.07;;;6.40;;
40971;SDS011;26701;47.408;19.174;2023-04-15T02:54:20;10.95;;;5.50;;
40971;SDS011;26701;47.408;19.174;2023-04-15T02:56:47;11.20;;;6.57;;
40971;SDS011;26701;47.408;19.174;2023-04-15T02:59:14;10.70;;;6.03;;
40971;SDS011;26701;47.408;19.174;2023-04-15T03:01:40;12.68;;;7.05;;
40971;SDS011;26701;47.408;19.174;2023-04-15T03:04:06;13.88;;;7.07;;
40971;SDS011;26701;47.408;19.174;2023-04-15T03:06:33;13.93;;;7.25;;
40971;SDS011;26701;47.408;19.174;2023-04-15T03:09:00;12.98;;;7.32;;
40971;SDS011;26701;47.408;19.174;2023-04-15T03:11:30;15.27;;;7.57;;
40971;SDS011;26701;47.408;19.174;2023-04-15T03:13:56;17.45;;;8.10;;
40971;SDS011;26701;47.408;19.174;2023-04-15T03:16:30;15.15;;;8.38;;
40971;SDS011;26701;47.408;19.174;2023-04-15T03:18:57;15.77;;;7.75;;
40971;SDS011;26701;47.408;19.174;2023-04-15T03:21:23;15.02;;;7.10;;
40971;SDS011;26701;47.408;19.174;2023-04-15T03:23:51;15.73;;;7.68;;
40971;SDS011;26701;47.408;19.174;2023-04-15T03:26:27;13.95;;;8.25;;
40971;SDS011;26701;47.408;19.174;2023-04-15T03:28:58;12.25;;;7.55;;
40971;SDS011;26701;47.408;19.174;2023-04-15T03:31:24;11.65;;;6.55;;
40971;SDS011;26701;47.408;19.174;2023-04-15T03:33:50;11.23;;;6.45;;
40971;SDS011;26701;47.408;19.174;2023-04-15T03:36:16;16.05;;;7.95;;
40971;SDS011;26701;47.408;19.174;2023-04-15T03:38:43;13.57;;;6.47;;
40971;SDS011;26701;47.408;19.174;2023-04-15T03:41:09;9.65;;;4.60;;
40971;SDS011;26701;47.408;19.174;2023-04-15T03:43:35;12.57;;;5.82;;
40971;SDS011;26701;47.408;19.174;2023-04-15T03:46:01;11.85;;;5.70;;
40971;SDS011;26701;47.408;19.174;2023-04-15T03:48:27;11.70;;;5.70;;
40971;SDS011;26701;47.408;19.174;2023-04-15T03:50:53;10.93;;;6.30;;
40971;SDS011;26701;47.408;19.174;2023-04-15T03:53:20;11.35;;;5.55;;
40971;SDS011;26701;47.408;19.174;2023-04-15T03:55:46;11.18;;;6.85;;
40971;SDS011;26701;47.408;19.174;2023-04-15T03:58:12;10.40;;;5.53;;
40971;SDS011;26701;47.408;19.174;2023-04-15T04:00:39;12.88;;;7.75;;
40971;SDS011;26701;47.408;19.174;2023-04-15T04:03:05;11.93;;;5.97;;
40971;SDS011;26701;47.408;19.174;2023-04-15T04:05:32;12.50;;;5.95;;
40971;SDS011;26701;47.408;19.174;2023-04-15T04:08:01;16.27;;;8.75;;
40971;SDS011;26701;47.408;19.174;2023-04-15T04:10:27;19.80;;;10.57;;
40971;SDS011;26701;47.408;19.174;2023-04-15T04:12:53;15.18;;;8.32;;
40971;SDS011;26701;47.408;19.174;2023-04-15T04:15:19;14.07;;;7.07;;
40971;SDS011;26701;47.408;19.174;2023-04-15T04:17:45;14.32;;;6.63;;
40971;SDS011;26701;47.408;19.174;2023-04-15T04:20:11;13.52;;;7.10;;
40971;SDS011;26701;47.408;19.174;2023-04-15T04:22:38;14.82;;;6.72;;
40971;SDS011;26701;47.408;19.174;2023-04-15T04:25:05;13.75;;;6.97;;
40971;SDS011;26701;47.408;19.174;2023-04-15T04:27:32;13.20;;;6.90;;
40971;SDS011;26701;47.408;19.174;2023-04-15T04:29:58;13.30;;;6.28;;
40971;SDS011;26701;47.408;19.174;2023-04-15T04:32:24;15.90;;;7.22;;
40971;SDS011;26701;47.408;19.174;2023-04-15T04:34:50;14.60;;;7.10;;
40971;SDS011;26701;47.408;19.174;2023-04-15T04:37:17;14.77;;;7.30;;
40971;SDS011;26701;47.408;19.174;2023-04-15T04:39:43;15.05;;;6.85;;
40971;SDS011;26701;47.408;19.174;2023-04-15T04:42:09;14.32;;;7.10;;
40971;SDS011;26701;47.408;19.174;2023-04-15T04:44:35;12.65;;;7.43;;
40971;SDS011;26701;47.408;19.174;2023-04-15T04:47:02;12.63;;;6.75;;
40971;SDS011;26701;47.408;19.174;2023-04-15T04:49:28;13.93;;;7.10;;
40971;SDS011;26701;47.408;19.174;2023-04-15T04:51:54;11.85;;;6.72;;
40971;SDS011;26701;47.408;19.174;2023-04-15T04:54:20;13.35;;;6.97;;
40971;SDS011;26701;47.408;19.174;2023-04-15T04:56:47;14.77;;;7.03;;
40971;SDS011;26701;47.408;19.174;2023-04-15T04:59:13;11.43;;;6.05;;
40971;SDS011;26701;47.408;19.174;2023-04-15T05:01:39;13.43;;;6.47;;
40971;SDS011;26701;47.408;19.174;2023-04-15T05:04:06;10.00;;;5.82;;
40971;SDS011;26701;47.408;19.174;2023-04-15T05:06:32;11.73;;;5.50;;
40971;SDS011;26701;47.408;19.174;2023-04-15T05:09:00;10.73;;;6.45;;
40971;SDS011;26701;47.408;19.174;2023-04-15T05:11:27;11.07;;;6.50;;
40971;SDS011;26701;47.408;19.174;2023-04-15T05:13:53;10.10;;;5.68;;
40971;SDS011;26701;47.408;19.174;2023-04-15T05:16:19;10.75;;;5.60;;
40971;SDS011;26701;47.408;19.174;2023-04-15T05:18:46;14.75;;;6.10;;
40971;SDS011;26701;47.408;19.174;2023-04-15T05:21:12;10.70;;;5.65;;
40971;SDS011;26701;47.408;19.174;2023-04-15T05:23:38;11.98;;;6.90;;
40971;SDS011;26701;47.408;19.174;2023-04-15T05:26:05;11.70;;;6.05;;
40971;SDS011;26701;47.408;19.174;2023-04-15T05:28:31;11.73;;;6.45;;
40971;SDS011;26701;47.408;19.174;2023-04-15T05:30:58;11.50;;;7.25;;
40971;SDS011;26701;47.408;19.174;2023-04-15T05:33:24;13.95;;;7.65;;
40971;SDS011;26701;47.408;19.174;2023-04-15T05:35:51;10.60;;;6.22;;
40971;SDS011;26701;47.408;19.174;2023-04-15T05:38:17;11.77;;;6.82;;
40971;SDS011;26701;47.408;19.174;2023-04-15T05:40:43;11.70;;;6.88;;
40971;SDS011;26701;47.408;19.174;2023-04-15T05:43:10;11.35;;;6.78;;
40971;SDS011;26701;47.408;19.174;2023-04-15T05:45:36;12.07;;;6.25;;
40971;SDS011;26701;47.408;19.174;2023-04-15T05:48:02;12.30;;;6.95;;
40971;SDS011;26701;47.408;19.174;2023-04-15T05:50:28;16.20;;;7.18;;
40971;SDS011;26701;47.408;19.174;2023-04-15T05:52:54;14.15;;;7.68;;
40971;SDS011;26701;47.408;19.174;2023-04-15T05:55:20;14.07;;;7.05;;
40971;SDS011;26701;47.408;19.174;2023-04-15T05:57:46;14.55;;;7.57;;
40971;SDS011;26701;47.408;19.174;2023-04-15T06:00:13;11.60;;;6.55;;
40971;SDS011;26701;47.408;19.174;2023-04-15T06:02:39;12.15;;;6.75;;
40971;SDS011;26701;47.408;19.174;2023-04-15T06:05:05;11.95;;;6.55;;
40971;SDS011;26701;47.408;19.174;2023-04-15T06:07:37;8.57;;;5.30;;
40971;SDS011;26701;47.408;19.174;2023-04-15T06:10:03;9.20;;;5.55;;
40971;SDS011;26701;47.408;19.174;2023-04-15T06:12:30;9.63;;;5.68;;
40971;SDS011;26701;47.408;19.174;2023-04-15T06:14:56;9.88;;;6.10;;
40971;SDS011;26701;47.408;19.174;2023-04-15T06:17:22;11.63;;;5.63;;
40971;SDS011;26701;47.408;19.174;2023-04-15T06:19:48;8.38;;;4.90;;
40971;SDS011;26701;47.408;19.174;2023-04-15T06:22:19;7.38;;;4.05;;
40971;SDS011;26701;47.408;19.174;2023-04-15T06:24:46;9.85;;;4.85;;
40971;SDS011;26701;47.408;19.174;2023-04-15T06:27:13;9.05;;;5.85;;
40971;SDS011;26701;47.408;19.174;2023-04-15T06:29:39;12.07;;;5.18;;
40971;SDS011;26701;47.408;19.174;2023-04-15T06:32:05;9.93;;;5.43;;
40971;SDS011;26701;47.408;19.174;2023-04-15T06:34:32;9.93;;;5.45;;
40971;SDS011;26701;47.408;19.174;2023-04-15T06:36:58;9.73;;;4.78;;
40971;SDS011;26701;47.408;19.174;2023-04-15T06:39:25;7.25;;;4.30;;
40971;SDS011;26701;47.408;19.174;2023-04-15T06:41:51;7.45;;;4.53;;
40971;SDS011;26701;47.408;19.174;2023-04-15T06:44:19;7.65;;;4.25;;
40971;SDS011;26701;47.408;19.174;2023-04-15T06:46:46;8.32;;;5.00;;
40971;SDS011;26701;47.408;19.174;2023-04-15T06:49:12;9.40;;;4.78;;
40971;SDS011;26701;47.408;19.174;2023-04-15T06:51:38;11.38;;;5.80;;
40971;SDS011;26701;47.408;19.174;2023-04-15T06:54:04;9.65;;;5.07;;
40971;SDS011;26701;47.408;19.174;2023-04-15T06:56:32;14.15;;;9.55;;
40971;SDS011;26701;47.408;19.174;2023-04-15T06:58:58;12.65;;;5.75;;
40971;SDS011;26701;47.408;19.174;2023-04-15T07:01:24;24.38;;;6.15;;
40971;SDS011;26701;47.408;19.174;2023-04-15T07:03:50;7.70;;;5.10;;
40971;SDS011;26701;47.408;19.174;2023-04-15T07:06:16;11.40;;;5.18;;
40971;SDS011;26701;47.408;19.174;2023-04-15T07:08:43;9.00;;;3.97;;
40971;SDS011;26701;47.408;19.174;2023-04-15T07:11:09;8.82;;;3.97;;
40971;SDS011;26701;47.408;19.174;2023-04-15T07:13:35;8.55;;;4.55;;
40971;SDS011;26701;47.408;19.174;2023-04-15T07:16:01;8.45;;;4.47;;
40971;SDS011;26701;47.408;19.174;2023-04-15T07:18:27;5.85;;;3.00;;
40971;SDS011;26701;47.408;19.174;2023-04-15T07:20:53;9.32;;;4.82;;
40971;SDS011;26701;47.408;19.174;2023-04-15T07:23:20;6.85;;;4.43;;
40971;SDS011;26701;47.408;19.174;2023-04-15T07:25:46;7.05;;;4.13;;
40971;SDS011;26701;47.408;19.174;2023-04-15T07:28:12;7.72;;;4.25;;
40971;SDS011;26701;47.408;19.174;2023-04-15T07:30:38;6.90;;;3.80;;
40971;SDS011;26701;47.408;19.174;2023-04-15T07:33:05;9.88;;;4.68;;
40971;SDS011;26701;47.408;19.174;2023-04-15T07:35:32;8.57;;;4.55;;
40971;SDS011;26701;47.408;19.174;2023-04-15T07:37:58;7.93;;;3.60;;
40971;SDS011;26701;47.408;19.174;2023-04-15T07:40:24;6.55;;;3.70;;
40971;SDS011;26701;47.408;19.174;2023-04-15T07:42:50;5.32;;;3.50;;
40971;SDS011;26701;47.408;19.174;2023-04-15T07:45:16;5.70;;;3.75;;
40971;SDS011;26701;47.408;19.174;2023-04-15T07:47:42;6.43;;;4.13;;
40971;SDS011;26701;47.408;19.174;2023-04-15T07:50:09;7.15;;;4.20;;
40971;SDS011;26701;47.408;19.174;2023-04-15T07:52:38;8.02;;;4.90;;
40971;SDS011;26701;47.408;19.174;2023-04-15T07:55:05;7.85;;;4.35;;
40971;SDS011;26701;47.408;19.174;2023-04-15T07:57:35;7.80;;;3.85;;
40971;SDS011;26701;47.408;19.174;2023-04-15T08:00:02;6.13;;;3.88;;
40971;SDS011;26701;47.408;19.174;2023-04-15T08:02:38;6.53;;;3.40;;
40971;SDS011;26701;47.408;19.174;2023-04-15T08:05:04;7.60;;;3.63;;
40971;SDS011;26701;47.408;19.174;2023-04-15T08:07:31;6.78;;;3.75;;
40971;SDS011;26701;47.408;19.174;2023-04-15T08:09:58;6.43;;;3.63;;
40971;SDS011;26701;47.408;19.174;2023-04-15T08:12:24;7.18;;;3.72;;
40971;SDS011;26701;47.408;19.174;2023-04-15T08:14:50;7.15;;;3.35;;
40971;SDS011;26701;47.408;19.174;2023-04-15T08:17:16;6.97;;;4.22;;
40971;SDS011;26701;47.408;19.174;2023-04-15T08:19:42;5.60;;;3.42;;
40971;SDS011;26701;47.408;19.174;2023-04-15T08:22:09;6.22;;;3.38;;
40971;SDS011;26701;47.408;19.174;2023-04-15T08:24:36;5.88;;;3.00;;
40971;SDS011;26701;47.408;19.174;2023-04-15T08:27:02;6.25;;;3.40;;
40971;SDS011;26701;47.408;19.174;2023-04-15T08:29:30;6.15;;;2.83;;
40971;SDS011;26701;47.408;19.174;2023-04-15T08:31:58;5.50;;;2.65;;
40971;SDS011;26701;47.408;19.174;2023-04-15T08:34:24;4.38;;;2.30;;
40971;SDS011;26701;47.408;19.174;2023-04-15T08:36:50;6.05;;;3.35;;
40971;SDS011;26701;47.408;19.174;2023-04-15T08:39:16;5.82;;;2.97;;
40971;SDS011;26701;47.408;19.174;2023-04-15T08:41:57;4.68;;;2.30;;
40971;SDS011;26701;47.408;19.174;2023-04-15T08:44:28;5.38;;;2.70;;
40971;SDS011;26701;47.408;19.174;2023-04-15T08:46:56;6.50;;;2.92;;
40971;SDS011;26701;47.408;19.174;2023-04-15T08:49:27;4.65;;;2.00;;
40971;SDS011;26701;47.408;19.174;2023-04-15T08:51:54;6.43;;;2.58;;
40971;SDS011;26701;47.408;19.174;2023-04-15T08:54:21;4.90;;;2.10;;
40971;SDS011;26701;47.408;19.174;2023-04-15T08:56:47;5.80;;;2.83;;
40971;SDS011;26701;47.408;19.174;2023-04-15T08:59:13;5.15;;;2.63;;
40971;SDS011;26701;47.408;19.174;2023-04-15T09:01:40;4.80;;;2.70;;
40971;SDS011;26701;47.408;19.174;2023-04-15T09:04:07;5.43;;;2.40;;
40971;SDS011;26701;47.408;19.174;2023-04-15T09:06:33;6.45;;;2.47;;
40971;SDS011;26701;47.408;19.174;2023-04-15T09:08:59;10.98;;;4.35;;
40971;SDS011;26701;47.408;19.174;2023-04-15T09:11:25;22.55;;;6.13;;
40971;SDS011;26701;47.408;19.174;2023-04-15T09:13:52;5.45;;;2.55;;
40971;SDS011;26701;47.408;19.174;2023-04-15T09:16:18;6.93;;;3.22;;
40971;SDS011;26701;47.408;19.174;2023-04-15T09:18:44;5.20;;;2.47;;
40971;SDS011;26701;47.408;19.174;2023-04-15T09:21:11;4.88;;;1.58;;
40971;SDS011;26701;47.408;19.174;2023-04-15T09:23:39;5.38;;;2.22;;
40971;SDS011;26701;47.408;19.174;2023-04-15T09:26:31;3.80;;;2.13;;
40971;SDS011;26701;47.408;19.174;2023-04-15T09:29:03;4.68;;;2.20;;
40971;SDS011;26701;47.408;19.174;2023-04-15T09:31:30;3.97;;;1.98;;
40971;SDS011;26701;47.408;19.174;2023-04-15T09:33:59;3.67;;;1.80;;
40971;SDS011;26701;47.408;19.174;2023-04-15T09:36:25;4.22;;;2.00;;
40971;SDS011;26701;47.408;19.174;2023-04-15T09:38:57;2.75;;;1.45;;
40971;SDS011;26701;47.408;19.174;2023-04-15T09:41:24;4.13;;;2.10;;
40971;SDS011;26701;47.408;19.174;2023-04-15T09:43:51;2.47;;;1.50;;
40971;SDS011;26701;47.408;19.174;2023-04-15T09:46:17;2.63;;;1.67;;
40971;SDS011;26701;47.408;19.174;2023-04-15T09:48:43;4.75;;;2.13;;
40971;SDS011;26701;47.408;19.174;2023-04-15T09:51:09;2.50;;;1.60;;
40971;SDS011;26701;47.408;19.174;2023-04-15T09:53:35;5.60;;;2.25;;
40971;SDS011;26701;47.408;19.174;2023-04-15T09:56:05;4.10;;;1.92;;
40971;SDS011;26701;47.408;19.174;2023-04-15T09:58:33;4.22;;;1.88;;
40971;SDS011;26701;47.408;19.174;2023-04-15T10:01:01;4.15;;;2.25;;
40971;SDS011;26701;47.408;19.174;2023-04-15T10:03:31;5.50;;;2.88;;
40971;SDS011;26701;47.408;19.174;2023-04-15T10:05:58;3.45;;;2.05;;
40971;SDS011;26701;47.408;19.174;2023-04-15T10:08:29;3.85;;;1.85;;
40971;SDS011;26701;47.408;19.174;2023-04-15T10:10:55;5.03;;;2.15;;
40971;SDS011;26701;47.408;19.174;2023-04-15T10:13:23;3.75;;;1.60;;
40971;SDS011;26701;47.408;19.174;2023-04-15T10:16:11;3.50;;;2.00;;
40971;SDS011;26701;47.408;19.174;2023-04-15T10:18:43;6.03;;;3.15;;
40971;SDS011;26701;47.408;19.174;2023-04-15T10:21:10;5.50;;;3.20;;
40971;SDS011;26701;47.408;19.174;2023-04-15T10:23:38;7.18;;;3.42;;
40971;SDS011;26701;47.408;19.174;2023-04-15T10:26:04;6.70;;;3.55;;
40971;SDS011;26701;47.408;19.174;2023-04-15T10:28:31;7.10;;;4.68;;
40971;SDS011;26701;47.408;19.174;2023-04-15T10:30:57;5.43;;;3.38;;
40971;SDS011;26701;47.408;19.174;2023-04-15T10:33:24;7.57;;;2.83;;
40971;SDS011;26701;47.408;19.174;2023-04-15T10:35:51;4.22;;;2.53;;
40971;SDS011;26701;47.408;19.174;2023-04-15T10:38:30;4.75;;;2.58;;
40971;SDS011;26701;47.408;19.174;2023-04-15T10:43:48;5.38;;;3.05;;
40971;SDS011;26701;47.408;19.174;2023-04-15T10:46:17;3.75;;;2.03;;
40971;SDS011;26701;47.408;19.174;2023-04-15T10:48:47;4.25;;;2.33;;
40971;SDS011;26701;47.408;19.174;2023-04-15T10:51:14;2.75;;;1.50;;
40971;SDS011;26701;47.408;19.174;2023-04-15T10:53:41;4.45;;;2.20;;
40971;SDS011;26701;47.408;19.174;2023-04-15T10:56:07;4.18;;;1.45;;
40971;SDS011;26701;47.408;19.174;2023-04-15T10:58:41;5.07;;;2.50;;
40971;SDS011;26701;47.408;19.174;2023-04-15T11:01:07;3.80;;;2.10;;
40971;SDS011;26701;47.408;19.174;2023-04-15T11:03:37;2.83;;;2.00;;
40971;SDS011;26701;47.408;19.174;2023-04-15T11:06:03;8.10;;;4.35;;
40971;SDS011;26701;47.408;19.174;2023-04-15T11:11:15;4.00;;;2.30;;
40971;SDS011;26701;47.408;19.174;2023-04-15T11:13:48;4.47;;;2.67;;
40971;SDS011;26701;47.408;19.174;2023-04-15T11:16:14;11.60;;;5.95;;
40971;SDS011;26701;47.408;19.174;2023-04-15T11:18:41;22.95;;;9.20;;
40971;SDS011;26701;47.408;19.174;2023-04-15T11:21:07;7.15;;;4.38;;
40971;SDS011;26701;47.408;19.174;2023-04-15T11:26:08;3.40;;;2.20;;
40971;SDS011;26701;47.408;19.174;2023-04-15T11:28:36;5.30;;;2.33;;
40971;SDS011;26701;47.408;19.174;2023-04-15T11:31:04;4.55;;;2.40;;
40971;SDS011;26701;47.408;19.174;2023-04-15T11:33:31;2.47;;;1.60;;
40971;SDS011;26701;47.408;19.174;2023-04-15T11:35:57;4.00;;;2.40;;
40971;SDS011;26701;47.408;19.174;2023-04-15T11:38:23;3.17;;;1.45;;
40971;SDS011;26701;47.408;19.174;2023-04-15T11:40:50;1.85;;;1.35;;
40971;SDS011;26701;47.408;19.174;2023-04-15T11:43:17;2.70;;;1.17;;
40971;SDS011;26701;47.408;19.174;2023-04-15T11:48:21;3.10;;;1.75;;
40971;SDS011;26701;47.408;19.174;2023-04-15T11:50:51;3.60;;;1.85;;
40971;SDS011;26701;47.408;19.174;2023-04-15T11:53:18;4.75;;;2.28;;
40971;SDS011;26701;47.408;19.174;2023-04-15T11:55:45;3.83;;;2.10;;
40971;SDS011;26701;47.408;19.174;2023-04-15T12:00:39;4.25;;;2.35;;
40971;SDS011;26701;47.408;19.174;2023-04-15T12:03:18;5.95;;;3.28;;
40971;SDS011;26701;47.408;19.174;2023-04-15T12:11:26;6.57;;;4.05;;
40971;SDS011;26701;47.408;19.174;2023-04-15T12:13:58;7.10;;;4.30;;
40971;SDS011;26701;47.408;19.174;2023-04-15T12:16:24;5.40;;;2.95;;
40971;SDS011;26701;47.408;19.174;2023-04-15T12:18:51;5.28;;;3.38;;
40971;SDS011;26701;47.408;19.174;2023-04-15T12:21:21;5.50;;;3.33;;
40971;SDS011;26701;47.408;19.174;2023-04-15T12:23:54;5.95;;;2.80;;
40971;SDS011;26701;47.408;19.174;2023-04-15T12:26:27;5.28;;;2.72;;
40971;SDS011;26701;47.408;19.174;2023-04-15T12:28:54;3.80;;;2.20;;
40971;SDS011;26701;47.408;19.174;2023-04-15T12:31:21;4.90;;;2.65;;
40971;SDS011;26701;47.408;19.174;2023-04-15T12:33:48;3.92;;;2.08;;
40971;SDS011;26701;47.408;19.174;2023-04-15T12:36:17;3.63;;;2.17;;
40971;SDS011;26701;47.408;19.174;2023-04-15T12:38:43;5.43;;;2.42;;
40971;SDS011;26701;47.408;19.174;2023-04-15T12:41:09;7.75;;;2.95;;
40971;SDS011;26701;47.408;19.174;2023-04-15T12:43:35;6.57;;;3.15;;
40971;SDS011;26701;47.408;19.174;2023-04-15T12:46:01;6.55;;;2.67;;
40971;SDS011;26701;47.408;19.174;2023-04-15T12:48:28;5.32;;;2.55;;
40971;SDS011;26701;47.408;19.174;2023-04-15T12:50:55;4.45;;;2.17;;
40971;SDS011;26701;47.408;19.174;2023-04-15T12:53:21;4.93;;;2.10;;
40971;SDS011;26701;47.408;19.174;2023-04-15T12:55:47;5.95;;;3.30;;
40971;SDS011;26701;47.408;19.174;2023-04-15T12:58:13;5.63;;;3.13;;
40971;SDS011;26701;47.408;19.174;2023-04-15T13:00:39;10.57;;;2.85;;
40971;SDS011;26701;47.408;19.174;2023-04-15T13:03:05;5.57;;;2.88;;
40971;SDS011;26701;47.408;19.174;2023-04-15T13:05:31;6.18;;;3.33;;
40971;SDS011;26701;47.408;19.174;2023-04-15T13:07:58;4.03;;;2.25;;
40971;SDS011;26701;47.408;19.174;2023-04-15T13:10:24;4.80;;;2.47;;
40971;SDS011;26701;47.408;19.174;2023-04-15T13:12:50;4.90;;;2.67;;
40971;SDS011;26701;47.408;19.174;2023-04-15T13:15:18;4.55;;;2.63;;
40971;SDS011;26701;47.408;19.174;2023-04-15T13:17:46;3.70;;;2.15;;
40971;SDS011;26701;47.408;19.174;2023-04-15T13:20:12;9.55;;;4.60;;
40971;SDS011;26701;47.408;19.174;2023-04-15T13:22:38;4.32;;;2.75;;
40971;SDS011;26701;47.408;19.174;2023-04-15T13:25:05;8.63;;;4.20;;
40971;SDS011;26701;47.408;19.174;2023-04-15T13:27:31;6.07;;;3.50;;
40971;SDS011;26701;47.408;19.174;2023-04-15T13:29:57;5.05;;;3.00;;
40971;SDS011;26701;47.408;19.174;2023-04-15T13:32:24;6.07;;;3.33;;
40971;SDS011;26701;47.408;19.174;2023-04-15T13:34:50;8.20;;;4.32;;
40971;SDS011;26701;47.408;19.174;2023-04-15T13:37:16;7.53;;;3.90;;
40971;SDS011;26701;47.408;19.174;2023-04-15T13:39:42;10.95;;;5.30;;
40971;SDS011;26701;47.408;19.174;2023-04-15T13:42:09;7.55;;;4.63;;
40971;SDS011;26701;47.408;19.174;2023-04-15T13:44:35;9.93;;;5.55;;
40971;SDS011;26701;47.408;19.174;2023-04-15T13:47:01;9.77;;;5.10;;
40971;SDS011;26701;47.408;19.174;2023-04-15T13:49:27;9.48;;;5.90;;
40971;SDS011;26701;47.408;19.174;2023-04-15T13:51:54;8.13;;;5.20;;
40971;SDS011;26701;47.408;19.174;2023-04-15T13:54:20;9.65;;;5.85;;
40971;SDS011;26701;47.408;19.174;2023-04-15T13:56:46;10.85;;;5.88;;
40971;SDS011;26701;47.408;19.174;2023-04-15T13:59:12;8.90;;;5.00;;
40971;SDS011;26701;47.408;19.174;2023-04-15T14:01:38;6.95;;;4.10;;
40971;SDS011;26701;47.408;19.174;2023-04-15T14:04:05;10.07;;;5.45;;
40971;SDS011;26701;47.408;19.174;2023-04-15T14:06:31;8.48;;;4.18;;
40971;SDS011;26701;47.408;19.174;2023-04-15T14:08:57;10.32;;;4.85;;
40971;SDS011;26701;47.408;19.174;2023-04-15T14:11:23;8.82;;;4.07;;
40971;SDS011;26701;47.408;19.174;2023-04-15T14:13:50;10.13;;;4.78;;
40971;SDS011;26701;47.408;19.174;2023-04-15T14:16:16;7.60;;;3.20;;
40971;SDS011;26701;47.408;19.174;2023-04-15T14:18:53;12.10;;;5.18;;
40971;SDS011;26701;47.408;19.174;2023-04-15T14:21:20;10.85;;;4.10;;
40971;SDS011;26701;47.408;19.174;2023-04-15T14:23:46;11.30;;;4.80;;
40971;SDS011;26701;47.408;19.174;2023-04-15T14:26:12;8.35;;;4.03;;
40971;SDS011;26701;47.408;19.174;2023-04-15T14:28:38;7.03;;;3.67;;
40971;SDS011;26701;47.408;19.174;2023-04-15T14:31:05;5.68;;;2.85;;
40971;SDS011;26701;47.408;19.174;2023-04-15T14:33:33;8.30;;;3.92;;
40971;SDS011;26701;47.408;19.174;2023-04-15T14:36:00;7.93;;;3.10;;
40971;SDS011;26701;47.408;19.174;2023-04-15T14:38:26;5.50;;;2.83;;
40971;SDS011;26701;47.408;19.174;2023-04-15T14:40:52;6.53;;;3.25;;
40971;SDS011;26701;47.408;19.174;2023-04-15T14:43:19;6.65;;;2.65;;
40971;SDS011;26701;47.408;19.174;2023-04-15T14:45:45;5.30;;;2.25;;